Time;durP1;ratioP1;P1;durP2;ratioP2;P2;SDS_P1;SDS_P2;PMS_P1;PMS_P2;Temp;Humidity;BMP_temperature;BMP_pressure;BME280_temperature;BME280_humidity;BME280_pressure;Samples;Min_cycle;Max_cycle;Signal;HPM_P1;HPM_P2
2022/04/05 05:35:47;;;;;;;;;;;;;;;2.81;96.03;99057.97;4914891;28;19974;-76
2022/04/05 05:38:12;;;;;;;;;;;;;;;2.80;95.93;99065.88;4927569;29;20330;-74
2022/04/05 05:40:37;;;;;;;;;;;;;;;2.79;95.98;99058.91;4927428;29;19919;-77
2022/04/05 05:43:03;;;;;;;;;;;;;;;2.76;96.10;99056.34;4927301;29;20374;-79
2022/04/05 05:45:30;;;;;;;;;;;;;;;2.75;95.84;99057.28;4927611;29;19923;-79
2022/04/05 05:47:55;;;;;;;;;;;;;;;2.76;95.50;99059.84;4925227;29;19926;-79
2022/04/05 05:50:21;;;;;;;;;;;;;;;2.77;95.54;99055.47;4926612;29;19919;-78
2022/04/05 05:52:46;;;;;;;;;;;;;;;2.69;95.35;99059.09;4933746;29;19965;-79
2022/04/05 05:55:12;;;;;;;;;;;;;;;2.73;95.13;99058.16;4927877;29;19922;-78
2022/04/05 05:57:37;;;;;;;;;;;;;;;2.71;94.89;99062.56;4927385;29;20017;-80
2022/04/05 06:00:06;;;;;;;;;;;;;;;2.73;94.72;99076.47;4927082;29;19927;-79
2022/04/05 06:02:31;;;;;;;;;;;;;;;2.73;94.57;99067.78;4927404;29;20354;-79
2022/04/05 06:04:56;;;;;;;;;;;;;;;2.75;94.31;99072.97;4926259;29;19950;-76
2022/04/05 06:07:22;;;;;;;;;;;;;;;2.68;93.92;99075.72;4926020;29;20371;-78
2022/04/05 06:09:47;;;;;;;;;;;;;;;2.68;93.73;99083.56;4933591;29;20330;-79
2022/04/05 06:12:12;;;;;;;;;;;;;;;2.71;93.48;99086.13;4926089;29;19919;-80
2022/04/05 06:14:38;;;;;;;;;;;;;;;2.73;93.46;99086.09;4927206;29;19922;-79
2022/04/05 06:17:03;;;;;;;;;;;;;;;3.06;96.17;99086.19;4926563;29;19923;-80
2022/04/05 06:19:28;;;;;;;;;;;;;;;3.13;98.17;99089.53;4931406;29;19970;-79
2022/04/05 06:21:54;;;;;;;;;;;;;;;3.14;99.45;99081.63;4926521;29;19922;-77
2022/04/05 06:24:19;;;;;;;;;;;;;;;3.09;99.95;99088.72;4926592;29;20382;-77
2022/04/05 06:26:44;;;;;;;;;;;;;;;3.05;99.88;99095.81;4927304;29;20285;-78
2022/04/05 06:29:10;;;;;;;;;;;;;;;2.96;99.75;99088.16;4926739;29;19923;-79
2022/04/05 06:31:35;;;;;;;;;;;;;;;2.96;99.73;99082.94;4926636;29;19923;-76
2022/04/05 06:34:02;;;;;;;;;;;;;;;2.95;99.59;99093.44;4925200;29;19964;-79
2022/04/05 06:36:28;;;;;;;;;;;;;;;2.94;99.60;99083.88;4926179;29;19919;-79
2022/04/05 06:38:53;;;;;;;;;;;;;;;2.93;99.48;99088.22;4926843;29;19919;-79
2022/04/05 06:41:18;;;;;;;;;;;;;;;2.91;99.32;99105.72;4926838;29;19930;-79
2022/04/05 06:43:44;;;;;;;;;;;;;;;2.89;99.29;99097.91;4926252;29;20010;-79
2022/04/05 06:46:09;;;;;;;;;;;;;;;2.89;98.98;99102.31;4926192;29;20378;-79
2022/04/05 06:48:34;;;;;;;;;;;;;;;2.85;98.83;99106.72;4925464;29;19929;-81
2022/04/05 06:50:59;;;;;;;;;;;;;;;2.86;98.59;99097.97;4925110;29;19927;-79
2022/04/05 06:53:25;;;;;;;;;;;;;;;2.81;97.92;99092.00;4925966;29;19954;-79
2022/04/05 06:55:50;;;;;;;;;;;;;;;2.81;97.39;99091.13;4926171;29;19930;-80
2022/04/05 06:58:15;;;;;;;;;;;;;;;2.82;97.04;99095.47;4925956;29;19919;-81
2022/04/05 07:00:40;;;;;;;;;;;;;;;2.81;96.53;99096.34;4926136;29;19926;-80
2022/04/05 07:03:06;;;;;;;;;;;;;;;2.83;96.17;99097.19;4925113;29;20013;-80
2022/04/05 07:05:32;;;;;;;;;;;;;;;2.80;95.72;99099.88;4925977;29;19942;-80
2022/04/05 07:26:05;;;;;;;;;;;;;;;2.80;92.54;99092.88;5592200;23;19935;-86
2022/04/05 07:28:31;;;;;;;;;;;;;;;2.79;92.30;99098.16;4929912;29;19965;-88
2022/04/05 07:30:56;;;;;;;;;;;;;;;2.75;91.88;99093.91;4934221;29;19943;-86
2022/04/05 07:33:21;;;;;;;;;;;;;;;2.80;91.64;99094.66;4935089;29;19918;-89
2022/04/05 07:35:46;;;;;;;;;;;;;;;2.78;90.98;99096.44;4933781;29;19919;-85
2022/04/05 07:38:12;;;;;;;;;;;;;;;2.77;90.90;99086.88;4935222;29;19922;-90
2022/04/05 07:40:50;;;;;;;;;;;;;;;2.72;90.83;99100.91;4934147;29;20356;-91
2022/04/05 07:43:22;;;;;;;;;;;;;;;2.78;90.89;99092.06;4930285;29;19973;-84
2022/04/05 07:45:50;;;;;;;;;;;;;;;2.76;90.54;99092.97;4934607;29;19926;-85
2022/04/05 07:48:18;;;;;;;;;;;;;;;2.76;90.32;99098.22;4934421;29;19927;-85
2022/04/05 07:50:43;;;;;;;;;;;;;;;2.71;89.95;99096.56;4933232;29;19926;-86
2022/04/05 07:53:08;;;;;;;;;;;;;;;2.70;89.56;99094.84;4934401;29;19926;-85
2022/04/05 07:55:34;;;;;;;;;;;;;;;2.70;89.40;99096.59;4932050;29;20404;-84
2022/04/05 07:57:59;;;;;;;;;;;;;;;2.70;89.21;99097.47;4933676;29;20393;-84
2022/04/05 08:00:26;;;;;;;;;;;;;;;2.72;88.91;99093.03;4924973;29;20522;-87
2022/04/05 08:02:52;;;;;;;;;;;;;;;2.75;88.71;99099.13;4929170;29;19930;-90
2022/04/05 08:05:17;;;;;;;;;;;;;;;3.12;89.60;99103.53;4929973;29;19919;-75
2022/04/05 08:07:43;;;;;;;;;;;;;;;4.41;92.72;99099.31;4932840;29;19958;-78
2022/04/05 08:10:09;;;;;;;;;;;;;;;3.67;92.80;99109.16;4929164;29;19919;-83
2022/04/05 08:12:37;;;;;;;;;;;;;;;3.38;93.06;99106.38;4934527;29;19930;-83
2022/04/05 08:15:02;;;;;;;;;;;;;;;3.31;93.03;99110.03;4934030;29;20001;-84
2022/04/05 08:17:28;;;;;;;;;;;;;;;3.23;92.42;99104.97;4934487;29;20062;-82
2022/04/05 08:19:53;;;;;;;;;;;;;;;3.24;92.04;99104.09;4934664;29;19919;-83
2022/04/05 08:22:18;;;;;;;;;;;;;;;3.24;91.75;99105.88;4934296;29;19919;-84
2022/04/05 08:24:44;;;;;;;;;;;;;;;3.20;91.41;99104.19;4934886;29;19918;-82
2022/04/05 08:27:09;;;;;;;;;;;;;;;3.19;91.18;99097.22;4931937;29;20383;-83
2022/04/05 08:29:39;;;;;;;;;;;;;;;3.17;90.84;99105.13;4929850;29;22206;-81
2022/04/05 08:32:05;;;;;;;;;;;;;;;3.15;90.48;99106.06;4929457;29;20146;-82
2022/04/05 08:34:31;;;;;;;;;;;;;;;3.13;90.11;99105.22;4933954;29;20137;-81
2022/04/05 08:36:57;;;;;;;;;;;;;;;3.43;90.81;99107.13;4932692;29;20401;-77
2022/04/05 08:39:22;;;;;;;;;;;;;;;4.75;95.23;99109.66;4933466;29;20017;-71
2022/04/05 08:41:48;;;;;;;;;;;;;;;4.49;95.49;99107.81;4934839;29;20005;-83
2022/04/05 08:44:16;;;;;;;;;;;;;;;3.80;95.41;99103.56;4936801;29;19918;-86
2022/04/05 08:46:41;;;;;;;;;;;;;;;3.57;94.97;99105.91;4938450;29;19923;-86
2022/04/05 08:49:07;;;;;;;;;;;;;;;3.50;94.61;99120.09;4937365;29;19994;-89
2022/04/05 08:51:32;;;;;;;;;;;;;;;3.45;94.01;99117.56;4938679;29;19919;-93
2022/04/05 08:53:58;;;;;;;;;;;;;;;3.38;93.52;99119.47;4937765;29;19973;-87
2022/04/05 08:56:26;;;;;;;;;;;;;;;3.36;93.05;99112.56;4938892;29;19919;-90
2022/04/05 08:58:52;;;;;;;;;;;;;;;3.31;92.39;99107.41;4938372;29;20001;-85
2022/04/05 09:01:17;;;;;;;;;;;;;;;3.31;92.00;99109.19;4937317;29;20013;-86
2022/04/05 09:03:42;;;;;;;;;;;;;;;3.22;91.46;99107.63;4938197;29;19923;-93
2022/04/05 09:06:43;;;;;;;;;;;;;;;3.24;91.28;99113.72;4938234;29;19919;-88
2022/04/05 09:09:12;;;;;;;;;;;;;;;3.20;90.75;99115.53;4879393;29;19980;-90
2022/04/05 09:11:45;;;;;;;;;;;;;;;3.18;90.53;99114.72;4916452;29;19923;-88
2022/04/05 09:14:10;;;;;;;;;;;;;;;3.16;89.84;99115.63;4937543;29;19923;-88
2022/04/05 09:16:35;;;;;;;;;;;;;;;3.14;89.61;99117.44;4936142;29;20449;-88
2022/04/05 09:19:09;;;;;;;;;;;;;;;3.19;89.36;99118.19;4940474;29;19922;-95
2022/04/05 09:21:51;;;;;;;;;;;;;;;3.13;88.86;99119.19;4939701;29;19919;-88
2022/04/05 09:24:16;;;;;;;;;;;;;;;3.11;88.50;99117.50;4938156;29;19954;-93
2022/04/05 09:26:43;;;;;;;;;;;;;;;3.09;88.25;99121.03;4937638;29;19962;-89
2022/04/05 09:29:08;;;;;;;;;;;;;;;3.11;87.87;99112.25;4938324;29;19923;-93
2022/04/05 09:31:42;;;;;;;;;;;;;;;3.09;87.42;99115.78;4939425;29;19919;-91
2022/04/05 09:34:12;;;;;;;;;;;;;;;3.14;87.24;99112.19;4938829;29;19922;-90
2022/04/05 09:36:39;;;;;;;;;;;;;;;3.16;87.15;99123.47;4937707;29;19918;-94
2022/04/05 09:39:16;;;;;;;;;;;;;;;3.15;86.86;99119.16;4938320;29;20366;-87
2022/04/05 09:41:42;;;;;;;;;;;;;;;3.15;86.62;99117.41;4951603;29;19923;-93
2022/04/05 09:44:07;;;;;;;;;;;;;;;3.13;86.46;99119.19;4935983;29;20017;-87
2022/04/05 09:46:33;;;;;;;;;;;;;;;3.12;86.02;99119.22;4937175;29;19971;-88
2022/04/05 09:49:04;;;;;;;;;;;;;;;3.12;85.81;99112.22;4937614;29;19919;-90
2022/04/05 09:51:40;;;;;;;;;;;;;;;3.14;85.65;99117.44;4950916;28;19927;-91
2022/04/05 09:54:08;;;;;;;;;;;;;;;3.12;85.47;99114.84;4951269;28;20414;-91
2022/04/05 09:56:45;;;;;;;;;;;;;;;;;;;;;
2022/04/05 09:59:18;;;;;;;;;;;;;;;3.12;84.70;99119.22;4936495;29;19923;-92
2022/04/05 10:01:46;;;;;;;;;;;;;;;3.16;84.72;99121.75;4935570;29;20029;-93
2022/04/05 10:04:14;;;;;;;;;;;;;;;3.21;84.48;99121.63;4936266;29;19941;-91
2022/04/05 10:06:43;;;;;;;;;;;;;;;3.19;84.50;99121.69;4935382;29;20044;-93
2022/04/05 10:09:10;;;;;;;;;;;;;;;3.16;84.23;99121.75;4936849;29;19915;-91
2022/04/05 10:11:38;;;;;;;;;;;;;;;3.19;84.11;99118.19;4935544;29;20392;-92
2022/04/05 10:14:04;;;;;;;;;;;;;;;3.20;83.97;99122.53;4935525;29;20282;-93
2022/04/05 10:16:39;;;;;;;;;;;;;;;3.18;83.62;99113.84;4936529;29;19919;-90
2022/04/05 10:19:09;;;;;;;;;;;;;;;3.19;83.36;99116.44;4936316;29;19997;-92
2022/04/05 10:21:37;;;;;;;;;;;;;;;3.22;83.09;99111.13;4926873;29;19919;-90
2022/04/05 10:24:09;;;;;;;;;;;;;;;3.24;83.34;99108.47;4935748;29;20031;-90
2022/04/05 10:26:37;;;;;;;;;;;;;;;3.24;83.43;99116.34;4933005;29;21619;-91
2022/04/05 10:29:07;;;;;;;;;;;;;;;3.26;83.44;99109.28;4936579;29;19927;-92
2022/04/05 10:31:40;;;;;;;;;;;;;;;3.25;83.46;99111.03;4950382;28;19933;-92
2022/04/05 10:34:07;;;;;;;;;;;;;;;3.27;83.30;99108.38;4935201;29;20390;-91
2022/04/05 10:36:33;;;;;;;;;;;;;;;3.26;82.97;99109.28;4935454;29;19919;-92
2022/04/05 10:39:16;;;;;;;;;;;;;;;3.28;82.87;99110.09;4934844;29;20018;-93
2022/04/05 10:41:45;;;;;;;;;;;;;;;3.25;82.58;99110.19;4934933;29;19919;-92
2022/04/05 10:44:16;;;;;;;;;;;;;;;3.31;82.63;99109.19;4936033;29;19974;-92
2022/04/05 10:46:42;;;;;;;;;;;;;;;3.29;82.34;99114.47;4936063;29;19926;-92
2022/04/05 10:49:08;;;;;;;;;;;;;;;3.30;82.13;99107.44;4934744;29;19927;-90
2022/04/05 10:51:55;;;;;;;;;;;;;;;3.31;82.21;99096.94;4936637;29;19919;-91
2022/04/05 10:54:33;;;;;;;;;;;;;;;;;;;;;
2022/04/05 11:00:34;;;;;;;;;;;;;;;;;;;;;
2022/04/05 11:02:59;;;;;;;;;;;;;;;3.33;82.07;99108.22;4935464;29;19929;-92
2022/04/05 11:05:37;;;;;;;;;;;;;;;;;;;;;
2022/04/05 11:08:09;;;;;;;;;;;;;;;3.37;82.01;99115.13;4935819;29;20259;-94
2022/04/05 11:10:40;;;;;;;;;;;;;;;3.34;81.67;99107.34;4932721;29;19925;-92
2022/04/05 11:13:18;;;;;;;;;;;;;;;3.35;81.29;99111.69;4931812;29;19926;-90
2022/04/05 11:15:48;;;;;;;;;;;;;;;3.41;81.45;99110.66;4932482;29;19926;-93
2022/04/05 11:18:19;;;;;;;;;;;;;;;3.41;81.38;99111.53;4917533;29;19938;-92
2022/04/05 11:20:46;;;;;;;;;;;;;;;3.40;81.35;99103.72;4932556;29;19919;-92
2022/04/05 11:23:12;;;;;;;;;;;;;;;3.40;81.34;99094.09;4917457;29;20025;-92
2022/04/05 11:25:37;;;;;;;;;;;;;;;3.44;81.33;99095.72;4931974;29;19923;-93
2022/04/05 11:28:10;;;;;;;;;;;;;;;3.45;81.28;99097.47;4932599;29;19933;-93
2022/04/05 11:30:46;;;;;;;;;;;;;;;3.47;81.36;99099.19;4932142;29;20465;-92
2022/04/05 11:33:28;;;;;;;;;;;;;;;3.48;81.33;99099.16;4933165;29;19974;-92
2022/04/05 11:36:06;;;;;;;;;;;;;;;3.47;81.16;99104.44;4932557;29;19982;-92
2022/04/05 11:38:38;;;;;;;;;;;;;;;3.49;81.06;99100.00;4933596;29;19954;-92
2022/04/05 11:41:21;;;;;;;;;;;;;;;;;;;;;
2022/04/05 11:43:52;;;;;;;;;;;;;;;3.47;80.94;99094.81;4935107;29;19919;-92
2022/04/05 11:46:29;;;;;;;;;;;;;;;3.49;80.81;99094.78;4934475;29;20401;-92
2022/04/05 11:48:55;;;;;;;;;;;;;;;3.51;80.66;99092.97;4934930;29;19915;-92
2022/04/05 11:51:22;;;;;;;;;;;;;;;3.53;80.49;99093.81;4934971;29;19925;-93
2022/04/05 11:53:48;;;;;;;;;;;;;;;3.51;80.26;99096.47;4934020;29;20385;-92
2022/04/05 11:56:19;;;;;;;;;;;;;;;3.52;80.22;99094.69;4934348;29;19918;-91
2022/04/05 11:58:56;;;;;;;;;;;;;;;3.53;80.41;99093.81;4933829;29;19919;-93
2022/04/05 12:01:24;;;;;;;;;;;;;;;3.56;80.47;99094.59;4934643;29;19914;-91
2022/04/05 12:03:56;;;;;;;;;;;;;;;3.57;80.34;99091.03;4932935;29;19923;-92
2022/04/05 12:06:41;;;;;;;;;;;;;;;3.57;80.34;99095.44;4934581;29;19922;-93
2022/04/05 12:09:22;;;;;;;;;;;;;;;3.61;80.32;99091.84;4935037;29;20302;-94
2022/04/05 12:11:51;;;;;;;;;;;;;;;3.60;80.34;99084.88;4948297;29;20032;-94
2022/04/05 12:14:24;;;;;;;;;;;;;;;3.63;80.57;99084.81;4935263;29;20409;-91
2022/04/05 12:16:54;;;;;;;;;;;;;;;3.61;80.40;99095.31;4938681;29;19919;-93
2022/04/05 12:19:32;;;;;;;;;;;;;;;3.62;80.36;99089.19;4936987;29;20032;-93
2022/04/05 12:22:10;;;;;;;;;;;;;;;3.68;80.48;99088.16;4928839;29;19966;-92
2022/04/05 12:24:54;;;;;;;;;;;;;;;3.66;80.10;99087.34;4937299;29;19923;-91
2022/04/05 12:27:21;;;;;;;;;;;;;;;3.63;80.08;99083.03;4952332;28;19978;-91
2022/04/05 12:29:57;;;;;;;;;;;;;;;3.67;79.90;99083.84;4938734;29;19922;-92
2022/04/05 12:32:22;;;;;;;;;;;;;;;3.69;79.95;99091.66;4938592;29;19923;-92
2022/04/05 12:34:48;;;;;;;;;;;;;;;3.69;79.85;99079.41;4937573;29;19923;-92
2022/04/05 12:37:22;;;;;;;;;;;;;;;3.72;79.85;99089.81;4937638;29;19926;-92
2022/04/05 12:39:54;;;;;;;;;;;;;;;3.77;79.98;99087.94;4937083;29;19968;-93
2022/04/05 12:42:20;;;;;;;;;;;;;;;3.76;79.92;99087.97;4937537;29;19919;-94
2022/04/05 12:44:55;;;;;;;;;;;;;;;3.74;79.93;99085.38;4938260;29;20491;-92
2022/04/05 12:47:21;;;;;;;;;;;;;;;3.72;79.83;99084.56;4937598;29;19918;-92
2022/04/05 12:49:49;;;;;;;;;;;;;;;3.73;79.65;99080.19;4936902;29;19925;-91
2022/04/05 12:52:19;;;;;;;;;;;;;;;3.89;80.37;99085.88;4938110;29;20017;-94
2022/04/05 12:54:54;;;;;;;;;;;;;;;4.05;82.25;99088.94;4937968;29;19966;-93
2022/04/05 12:57:52;;;;;;;;;;;;;;;4.10;84.17;99085.31;4937207;29;19925;-92
2022/04/05 13:00:18;;;;;;;;;;;;;;;4.13;86.21;99074.75;4915833;29;19962;-91
2022/04/05 13:03:10;;;;;;;;;;;;;;;4.10;87.44;99077.44;4938713;29;20433;-95
2022/04/05 13:08:33;;;;;;;;;;;;;;;4.03;89.23;99073.25;4938397;29;19926;-93
2022/04/05 13:10:58;;;;;;;;;;;;;;;3.99;90.14;99066.41;4935471;29;19925;-93
2022/04/05 13:13:34;;;;;;;;;;;;;;;3.90;90.67;99070.09;4936804;29;19922;-92
2022/04/05 13:16:03;;;;;;;;;;;;;;;3.84;91.18;99067.66;4937812;29;19919;-93
2022/04/05 13:18:41;;;;;;;;;;;;;;;3.81;91.77;99068.59;4938132;29;20378;-89
2022/04/05 13:21:08;;;;;;;;;;;;;;;3.73;92.34;99064.47;4938259;29;20401;-90
2022/04/05 13:23:35;;;;;;;;;;;;;;;3.74;93.71;99067.03;4937727;29;19925;-90
2022/04/05 13:26:00;;;;;;;;;;;;;;;3.74;95.21;99061.78;4935026;29;19919;-89
2022/04/05 13:28:36;;;;;;;;;;;;;;;3.82;97.27;99065.06;4935771;29;19953;-91
2022/04/05 13:31:09;;;;;;;;;;;;;;;4.03;99.86;99057.53;4937435;29;19919;-90
2022/04/05 13:33:35;;;;;;;;;;;;;;;4.25;100.00;99068.28;4937775;29;20298;-90
2022/04/05 13:36:00;;;;;;;;;;;;;;;4.39;100.00;99060.00;4938121;29;19926;-94
2022/04/05 13:38:26;;;;;;;;;;;;;;;4.48;100.00;99057.13;4937312;29;19922;-94
2022/04/05 13:40:53;;;;;;;;;;;;;;;4.55;100.00;99058.66;4935440;29;19919;-92
2022/04/05 13:43:19;;;;;;;;;;;;;;;4.59;100.00;99051.53;4937855;29;20025;-90
2022/04/05 13:45:44;;;;;;;;;;;;;;;4.62;100.00;99034.84;4936719;29;20293;-91
2022/04/05 13:48:10;;;;;;;;;;;;;;;4.70;100.00;99038.09;4937634;29;20013;-89
2022/04/05 13:50:35;;;;;;;;;;;;;;;4.71;100.00;99034.56;4935534;29;19923;-89
2022/04/05 13:53:00;;;;;;;;;;;;;;;4.74;100.00;99029.22;4937103;29;19946;-88
2022/04/05 13:55:26;;;;;;;;;;;;;;;4.78;100.00;99022.97;4935300;29;19922;-94
2022/04/05 13:57:51;;;;;;;;;;;;;;;4.79;100.00;99027.31;4936109;29;19929;-89
2022/04/05 14:00:16;;;;;;;;;;;;;;;4.83;100.00;99020.19;4937248;29;19930;-92
2022/04/05 14:02:42;;;;;;;;;;;;;;;4.87;100.00;99027.94;4936126;29;19919;-93
2022/04/05 14:05:07;;;;;;;;;;;;;;;4.88;100.00;99016.53;4937388;29;20391;-95
2022/04/05 14:07:34;;;;;;;;;;;;;;;4.92;100.00;99022.53;4937511;29;19919;-88
2022/04/05 14:09:59;;;;;;;;;;;;;;;4.96;100.00;99018.88;4936128;29;19967;-91
2022/04/05 14:12:24;;;;;;;;;;;;;;;5.01;100.00;99013.50;4935327;29;19944;-88
2022/04/05 14:14:50;;;;;;;;;;;;;;;5.02;100.00;99015.22;4937092;29;20291;-93
2022/04/05 14:17:18;;;;;;;;;;;;;;;5.02;100.00;99012.59;4936966;29;19926;-93
2022/04/05 14:19:43;;;;;;;;;;;;;;;5.03;100.00;99014.31;4937137;29;19997;-93
2022/04/05 14:22:09;;;;;;;;;;;;;;;5.05;100.00;99012.50;4937072;29;19962;-88
2022/04/05 14:24:34;;;;;;;;;;;;;;;5.07;100.00;99005.41;4935948;29;19918;-90
2022/04/05 14:26:59;;;;;;;;;;;;;;;5.07;100.00;99006.28;4934244;29;19927;-91
2022/04/05 14:29:24;;;;;;;;;;;;;;;4.73;100.00;99003.88;4936533;29;19978;-90
2022/04/05 14:31:52;;;;;;;;;;;;;;;4.10;100.00;99006.66;4935525;29;20298;-92
2022/04/05 14:34:20;;;;;;;;;;;;;;;3.91;100.00;99011.56;4936430;29;19923;-89
2022/04/05 14:36:46;;;;;;;;;;;;;;;3.82;100.00;99017.91;4936232;29;20021;-89
2022/04/05 14:39:11;;;;;;;;;;;;;;;3.71;100.00;99019.94;4935413;29;20013;-89
2022/04/05 14:41:37;;;;;;;;;;;;;;;3.69;100.00;99027.00;4934845;29;19973;-89
2022/04/05 14:44:03;;;;;;;;;;;;;;;3.70;100.00;99023.50;4936162;29;20441;-92
2022/04/05 14:46:31;;;;;;;;;;;;;;;3.62;100.00;99020.19;4935727;29;19923;-89
2022/04/05 14:48:59;;;;;;;;;;;;;;;3.57;100.00;99020.31;4926269;29;19915;-90
2022/04/05 14:51:25;;;;;;;;;;;;;;;3.53;100.00;99009.97;4931915;29;19974;-89
2022/04/05 14:53:51;;;;;;;;;;;;;;;3.52;100.00;99016.97;4934963;29;19946;-94
2022/04/05 14:56:16;;;;;;;;;;;;;;;3.48;100.00;99014.47;4932531;29;19923;-92
2022/04/05 14:58:41;;;;;;;;;;;;;;;3.50;100.00;99015.31;4931460;29;19977;-92
2022/04/05 15:01:06;;;;;;;;;;;;;;;3.45;100.00;99013.66;4931266;29;20374;-91
2022/04/05 15:03:33;;;;;;;;;;;;;;;3.43;100.00;99011.97;4916584;29;20045;-91
2022/04/05 15:06:01;;;;;;;;;;;;;;;3.38;100.00;99004.25;4934452;29;19923;-92
2022/04/05 15:08:26;;;;;;;;;;;;;;;3.36;100.00;99003.41;4934553;29;20005;-94
2022/04/05 15:10:51;;;;;;;;;;;;;;;3.35;100.00;98991.22;4948118;28;20143;-91
2022/04/05 15:13:17;;;;;;;;;;;;;;;3.32;99.74;98996.56;4935936;29;19970;-93
2022/04/05 15:15:42;;;;;;;;;;;;;;;3.32;99.44;99007.03;4934567;29;19930;-90
2022/04/05 15:18:10;;;;;;;;;;;;;;;3.30;98.77;99002.72;4935212;29;20429;-88
2022/04/05 15:20:35;;;;;;;;;;;;;;;3.28;98.20;99005.38;4933239;29;19927;-94
2022/04/05 15:23:00;;;;;;;;;;;;;;;3.27;97.95;99001.03;4932455;29;19926;-92
2022/04/05 15:25:26;;;;;;;;;;;;;;;3.20;97.47;99002.09;4929124;29;19935;-92
2022/04/05 15:27:51;;;;;;;;;;;;;;;3.23;97.42;98999.41;4931846;29;19979;-89
2022/04/05 15:30:17;;;;;;;;;;;;;;;3.21;96.94;99003.81;4933886;29;19931;-94
2022/04/05 15:32:45;;;;;;;;;;;;;;;3.21;96.60;98993.34;4933430;29;20326;-89
2022/04/05 15:35:11;;;;;;;;;;;;;;;3.21;96.46;99001.19;4931192;29;19927;-89
2022/04/05 15:37:41;;;;;;;;;;;;;;;3.19;96.16;99000.34;4933374;28;19997;-92
2022/04/05 15:40:06;;;;;;;;;;;;;;;3.18;95.96;99004.75;4934874;29;20196;-91
2022/04/05 15:42:32;;;;;;;;;;;;;;;3.16;95.79;99005.66;4932478;29;19927;-90
2022/04/05 15:44:59;;;;;;;;;;;;;;;3.16;95.57;99003.94;4934378;29;19969;-93
2022/04/05 15:47:25;;;;;;;;;;;;;;;3.14;95.23;99007.47;4933948;29;19919;-92
2022/04/05 15:49:50;;;;;;;;;;;;;;;3.14;95.07;98994.38;4932011;29;19923;-92
2022/04/05 15:52:15;;;;;;;;;;;;;;;3.16;94.95;98998.69;4934627;29;20362;-91
2022/04/05 15:54:51;;;;;;;;;;;;;;;;;;;;;
2022/04/05 16:00:23;;;;;;;;;;;;;;;3.12;94.26;99001.44;4941337;23;20302;-92
2022/04/05 16:02:51;;;;;;;;;;;;;;;3.09;94.20;99005.84;4926866;29;19923;-93
2022/04/05 16:05:16;;;;;;;;;;;;;;;3.11;94.13;98997.09;4934057;29;19966;-92
2022/04/05 16:07:52;;;;;;;;;;;;;;;;;;;;;
2022/04/05 16:10:18;;;;;;;;;;;;;;;3.07;93.76;99006.78;4932982;29;19922;-91
2022/04/05 16:12:43;;;;;;;;;;;;;;;3.06;93.40;99007.66;4933110;29;20585;-90
2022/04/05 16:15:08;;;;;;;;;;;;;;;3.04;93.13;99005.09;4935528;29;19922;-91
2022/04/05 16:18:36;;;;;;;;;;;;;;;3.06;93.06;99011.16;4934432;29;20330;-90
2022/04/05 16:20:42;;;;;;;;;;;;;;;3.02;92.94;99012.13;4932347;29;20523;-89
2022/04/05 16:23:12;;;;;;;;;;;;;;;3.03;92.80;99008.63;4934148;29;19922;-91
2022/04/05 16:25:37;;;;;;;;;;;;;;;3.04;92.74;99007.69;4932834;29;19982;-90
2022/04/05 16:28:03;;;;;;;;;;;;;;;3.05;92.58;99008.59;4933590;29;20363;-89
2022/04/05 16:30:28;;;;;;;;;;;;;;;3.00;92.43;99011.31;4934738;29;20363;-90
2022/04/05 16:32:53;;;;;;;;;;;;;;;2.99;92.42;99004.34;4933955;29;19923;-91
2022/04/05 16:35:52;;;;;;;;;;;;;;;;;;;;;
2022/04/05 16:38:18;;;;;;;;;;;;;;;2.99;92.06;99009.56;4933626;29;19925;-92
2022/04/05 16:40:43;;;;;;;;;;;;;;;3.01;91.96;99012.16;4932966;29;20001;-91
2022/04/05 16:43:09;;;;;;;;;;;;;;;2.98;91.68;99007.84;4933727;29;20479;-95
2022/04/05 16:45:37;;;;;;;;;;;;;;;3.00;91.67;99006.06;4935360;29;19950;-92
2022/04/05 16:48:02;;;;;;;;;;;;;;;2.97;91.50;99010.50;4933158;29;19970;-92
2022/04/05 16:50:28;;;;;;;;;;;;;;;2.96;91.23;99009.66;4933215;29;19927;-92
2022/04/05 16:52:53;;;;;;;;;;;;;;;2.94;91.16;99011.44;4934685;29;19942;-89
2022/04/05 16:55:18;;;;;;;;;;;;;;;2.95;91.17;99013.16;4932425;29;20025;-92
2022/04/05 16:57:44;;;;;;;;;;;;;;;2.94;91.04;99008.84;4934678;29;20368;-90
2022/04/05 17:00:22;;;;;;;;;;;;;;;;;;;;;
2022/04/05 17:02:48;;;;;;;;;;;;;;;2.93;90.86;99014.09;4935941;29;20293;-92
2022/04/05 17:05:24;;;;;;;;;;;;;;;2.94;90.69;99013.22;4936734;29;20017;-92
2022/04/05 17:07:49;;;;;;;;;;;;;;;2.93;90.88;99012.34;4937750;29;20005;-92
2022/04/05 17:10:14;;;;;;;;;;;;;;;2.91;90.87;99012.38;4937101;29;20026;-91
2022/04/05 17:12:43;;;;;;;;;;;;;;;2.91;90.73;99012.38;4936996;29;19946;-91
2022/04/05 17:15:14;;;;;;;;;;;;;;;2.94;90.76;99014.06;4935872;29;19923;-89
2022/04/05 17:17:39;;;;;;;;;;;;;;;2.92;90.51;99015.88;4936220;29;19922;-91
2022/04/05 17:20:05;;;;;;;;;;;;;;;2.90;90.53;99015.91;4937842;29;19970;-91
2022/04/05 17:25:19;;;;;;;;;;;;;;;2.92;90.37;99015.88;4887071;29;19920;-89
2022/04/05 17:27:44;;;;;;;;;;;;;;;2.91;90.26;99016.75;4930455;29;19985;-90
2022/04/05 17:30:11;;;;;;;;;;;;;;;2.90;90.30;99017.66;4937303;29;19919;-90
2022/04/05 17:32:36;;;;;;;;;;;;;;;2.93;90.23;99014.94;4937026;29;20604;-90
2022/04/05 17:35:02;;;;;;;;;;;;;;;2.91;90.37;99017.59;4935203;29;20342;-92
2022/04/05 17:37:32;;;;;;;;;;;;;;;2.95;90.21;99013.16;4936936;29;19966;-88
2022/04/05 17:39:57;;;;;;;;;;;;;;;2.94;90.07;99006.22;4937096;29;19923;-88
2022/04/05 17:42:23;;;;;;;;;;;;;;;2.94;89.97;99008.84;4935910;29;20389;-91
2022/04/05 17:44:48;;;;;;;;;;;;;;;2.93;89.92;99009.72;4936523;29;19919;-89
2022/04/05 17:47:13;;;;;;;;;;;;;;;2.89;89.85;99010.72;4934669;29;19926;-89
2022/04/05 17:50:04;;;;;;;;;;;;;;;2.92;89.75;99008.03;4936754;29;19919;-89
2022/04/05 17:52:37;;;;;;;;;;;;;;;2.90;89.46;99007.16;4935310;29;19926;-92
2022/04/05 17:55:03;;;;;;;;;;;;;;;2.93;89.25;98999.25;4936509;29;19919;-90
2022/04/05 17:57:28;;;;;;;;;;;;;;;2.91;89.09;99003.66;4933864;29;20386;-89
2022/04/05 17:59:53;;;;;;;;;;;;;;;2.92;88.77;99002.78;4934406;29;19962;-91
2022/04/05 18:02:21;;;;;;;;;;;;;;;2.89;88.69;98995.84;4936608;29;19923;-91
2022/04/05 18:04:47;;;;;;;;;;;;;;;2.91;88.71;98996.66;4943715;29;19922;-90
2022/04/05 18:07:13;;;;;;;;;;;;;;;2.89;88.62;98995.00;4937405;29;20482;-89
2022/04/05 18:09:44;;;;;;;;;;;;;;;2.93;88.37;98996.63;4936047;29;19919;-88
2022/04/05 18:12:09;;;;;;;;;;;;;;;2.91;88.28;99001.91;4936713;29;20484;-89
2022/04/05 18:14:35;;;;;;;;;;;;;;;2.91;88.27;98996.66;4938415;29;19926;-93
2022/04/05 18:17:00;;;;;;;;;;;;;;;2.90;88.06;98997.59;4939051;29;19923;-88
2022/04/05 18:19:25;;;;;;;;;;;;;;;2.87;87.92;98995.03;4938233;29;20003;-94
2022/04/05 18:21:50;;;;;;;;;;;;;;;2.89;87.87;98998.47;4938055;29;20410;-91
2022/04/05 18:24:17;;;;;;;;;;;;;;;2.91;87.54;99001.06;4938645;29;19919;-93
2022/04/05 18:26:42;;;;;;;;;;;;;;;2.90;87.50;98991.47;4938382;29;19919;-90
2022/04/05 18:29:08;;;;;;;;;;;;;;;2.91;87.39;98995.81;4937742;29;19978;-91
2022/04/05 18:31:33;;;;;;;;;;;;;;;2.93;87.13;98999.25;4937682;29;20355;-91
2022/04/05 18:33:58;;;;;;;;;;;;;;;2.92;86.99;99000.16;4937129;29;19922;-90
2022/04/05 18:36:24;;;;;;;;;;;;;;;2.93;86.84;98999.25;4935606;29;20001;-91
2022/04/05 18:38:52;;;;;;;;;;;;;;;2.90;86.61;99007.16;4938897;29;19938;-89
2022/04/05 18:41:17;;;;;;;;;;;;;;;2.91;86.56;99011.53;4937474;29;19966;-93
2022/04/05 18:43:43;;;;;;;;;;;;;;;2.90;86.50;99008.06;4937900;29;19918;-91
2022/04/05 18:46:08;;;;;;;;;;;;;;;2.93;86.28;99011.50;4936761;29;20239;-90
2022/04/05 18:48:34;;;;;;;;;;;;;;;2.91;86.22;99007.13;4940122;29;20664;-92
2022/04/05 18:50:59;;;;;;;;;;;;;;;2.93;86.18;99017.56;4939354;29;19918;-91
2022/04/05 18:53:25;;;;;;;;;;;;;;;2.90;85.88;99015.91;4936364;29;20350;-93
2022/04/05 18:55:51;;;;;;;;;;;;;;;2.92;85.76;99013.25;4936131;29;19922;-91
2022/04/05 18:58:16;;;;;;;;;;;;;;;2.89;85.69;99014.19;4937769;29;19993;-92
2022/04/05 19:00:42;;;;;;;;;;;;;;;2.90;85.50;99015.03;4936835;29;20393;-91
2022/04/05 19:03:07;;;;;;;;;;;;;;;2.95;85.11;99014.91;4935109;29;20359;-88
2022/04/05 19:05:33;;;;;;;;;;;;;;;2.94;84.84;99011.44;4937576;29;19967;-90
2022/04/05 19:07:58;;;;;;;;;;;;;;;2.92;84.77;99021.09;4936820;29;19978;-93
2022/04/05 19:10:39;;;;;;;;;;;;;;;2.93;84.58;99016.72;4936328;29;19973;-89
2022/04/05 19:13:05;;;;;;;;;;;;;;;2.93;84.45;99019.34;4936240;29;20021;-91
2022/04/05 19:15:30;;;;;;;;;;;;;;;2.90;84.20;99017.66;4935808;29;19919;-90